Thomson Majesty — 9HA2188 — position and weather

sailwx.info

Track history (hours):
 
Tides and Currents Weather Stations Pressure Air Temp Water Temp Dewpoint Dewpoint Depression Visibility Wind Speed Wind Dir Waves Ship Positions

Thomson Majesty

Last reported at 2016-Feb-12 23:11 UTC. Time now 2016-Feb-13 04:26 UTC.
Position N 30°43' W 010°47'.

Length 207 m; draft 6.2 m.

Type: Ship. MMSI: 248124000.

Date/timePositionNaut miles runAvg speedWind from/ knotsBaromVisibWave heightAir tempDewpointWater temp
2016-Feb-12 23:11N 30°43' W 010°47'811.5
2016-Feb-12 22:31N 30°46' W 010°55'1110.8
2016-Feb-12 21:31N 30°49' W 011°07'6111.8
2016-Feb-12 16:18N 31°08' W 012°15'1213.0
2016-Feb-12 15:23N 31°12' W 012°28'273 6.2
2016-Feb-10 19:33N 29°46' W 017°29'77 4.8
2016-Feb-10 03:31N 28°40' W 016°44'1212.4
2016-Feb-10 02:32N 28°40' W 016°30'1212.1
2016-Feb-10 01:32N 28°40' W 016°17'1111.4
2016-Feb-10 00:33N 28°37' W 016°04'10 9.7
2016-Feb-09 23:33N 28°29' W 016°11'3 2.9
2016-Feb-09 22:25N 28°28' W 016°15'0 0.0
2016-Feb-09 21:22N 28°28' W 016°15'0 0.0
2016-Feb-09 20:25N 28°28' W 016°15'0 0.0
2016-Feb-09 19:28N 28°28' W 016°15'0 0.0
2016-Feb-09 18:28N 28°28' W 016°15'0 0.0
2016-Feb-09 17:31N 28°28' W 016°15'0 0.0
2016-Feb-09 16:31N 28°28' W 016°15'0 0.0
2016-Feb-09 15:28N 28°28' W 016°15'0 0.0
2016-Feb-09 14:28N 28°28' W 016°15'0 0.0
2016-Feb-09 13:19N 28°28' W 016°15'0 0.0
2016-Feb-09 12:19N 28°28' W 016°15'0 0.0
2016-Feb-09 11:22N 28°28' W 016°15'0 0.0
2016-Feb-09 10:07N 28°28' W 016°15'0 0.0
2016-Feb-09 09:25N 28°28' W 016°15'0 0.0
2016-Feb-09 08:25N 28°28' W 016°15'0 0.0
2016-Feb-09 07:25N 28°28' W 016°15'0 0.0
2016-Feb-09 06:28N 28°28' W 016°15'0 0.0
2016-Feb-09 05:20N 28°28' W 016°15'6 7.3
2016-Feb-09 04:33N 28°26' W 016°09'1010.2
2016-Feb-09 03:33N 28°25' W 015°57'1111.1
2016-Feb-09 02:33N 28°33' W 015°49'9 8.9
2016-Feb-09 01:33N 28°35' W 015°39'1111.3
2016-Feb-09 00:33N 28°28' W 015°29'1111.1
2016-Feb-08 23:33N 28°20' W 015°20'1110.8
2016-Feb-08 22:33N 28°09' W 015°22'3 2.7
2016-Feb-08 21:34N 28°08' W 015°25'0 0.0
2016-Feb-08 20:34N 28°08' W 015°25'0 0.0
2016-Feb-08 19:34N 28°08' W 015°25'0 0.0
2016-Feb-08 18:33N 28°08' W 015°25'0 0.0
2016-Feb-08 17:33N 28°08' W 015°25'0 0.0
2016-Feb-08 16:33N 28°08' W 015°25'0 0.0
2016-Feb-08 15:33N 28°08' W 015°25'0 0.0
2016-Feb-08 14:33N 28°08' W 015°25'0 0.0
2016-Feb-08 13:33N 28°08' W 015°25'0 0.0
2016-Feb-08 12:33N 28°08' W 015°25'0 0.0
2016-Feb-08 11:33N 28°08' W 015°25'0 0.0
2016-Feb-08 10:33N 28°08' W 015°25'  
2016-Feb-03 02:17N 28°03' W 016°18'1111.4
2016-Feb-03 01:17N 28°11' W 016°09'811.5
2016-Feb-03 00:33N 28°18' W 016°04'10 9.9
2016-Feb-02 23:33N 28°27' W 016°11'  
Track history (hours):
 
Tides and Currents Weather Stations Pressure Air Temp Water Temp Dewpoint Dewpoint Depression Visibility Wind Speed Wind Dir Waves Ship Positions

Thomson Majesty

Last reported at 2016-Feb-12 23:11 UTC. Time now 2016-Feb-13 04:26 UTC.
Position N 30°43' W 010°47'.

Length 207 m; draft 6.2 m.

Type: Ship. MMSI: 248124000.

Date/timePositionNaut miles runAvg speedWind from/ knotsBaromVisibWave heightAir tempDewpointWater temp
2016-Feb-12 23:11N 30°43' W 010°47'811.5
2016-Feb-12 22:31N 30°46' W 010°55'1110.8
2016-Feb-12 21:31N 30°49' W 011°07'6111.8
2016-Feb-12 16:18N 31°08' W 012°15'1213.0
2016-Feb-12 15:23N 31°12' W 012°28'273 6.2
2016-Feb-10 19:33N 29°46' W 017°29'77 4.8
2016-Feb-10 03:31N 28°40' W 016°44'1212.4
2016-Feb-10 02:32N 28°40' W 016°30'1212.1
2016-Feb-10 01:32N 28°40' W 016°17'1111.4
2016-Feb-10 00:33N 28°37' W 016°04'10 9.7
2016-Feb-09 23:33N 28°29' W 016°11'3 2.9
2016-Feb-09 22:25N 28°28' W 016°15'0 0.0
2016-Feb-09 21:22N 28°28' W 016°15'0 0.0
2016-Feb-09 20:25N 28°28' W 016°15'0 0.0
2016-Feb-09 19:28N 28°28' W 016°15'0 0.0
2016-Feb-09 18:28N 28°28' W 016°15'0 0.0
2016-Feb-09 17:31N 28°28' W 016°15'0 0.0
2016-Feb-09 16:31N 28°28' W 016°15'0 0.0
2016-Feb-09 15:28N 28°28' W 016°15'0 0.0
2016-Feb-09 14:28N 28°28' W 016°15'0 0.0
2016-Feb-09 13:19N 28°28' W 016°15'0 0.0
2016-Feb-09 12:19N 28°28' W 016°15'0 0.0
2016-Feb-09 11:22N 28°28' W 016°15'0 0.0
2016-Feb-09 10:07N 28°28' W 016°15'0 0.0
2016-Feb-09 09:25N 28°28' W 016°15'0 0.0
2016-Feb-09 08:25N 28°28' W 016°15'0 0.0
2016-Feb-09 07:25N 28°28' W 016°15'0 0.0
2016-Feb-09 06:28N 28°28' W 016°15'0 0.0
2016-Feb-09 05:20N 28°28' W 016°15'6 7.3
2016-Feb-09 04:33N 28°26' W 016°09'1010.2
2016-Feb-09 03:33N 28°25' W 015°57'1111.1
2016-Feb-09 02:33N 28°33' W 015°49'9 8.9
2016-Feb-09 01:33N 28°35' W 015°39'1111.3
2016-Feb-09 00:33N 28°28' W 015°29'1111.1
2016-Feb-08 23:33N 28°20' W 015°20'1110.8
2016-Feb-08 22:33N 28°09' W 015°22'3 2.7
2016-Feb-08 21:34N 28°08' W 015°25'0 0.0
2016-Feb-08 20:34N 28°08' W 015°25'0 0.0
2016-Feb-08 19:34N 28°08' W 015°25'0 0.0
2016-Feb-08 18:33N 28°08' W 015°25'0 0.0
2016-Feb-08 17:33N 28°08' W 015°25'0 0.0
2016-Feb-08 16:33N 28°08' W 015°25'0 0.0
2016-Feb-08 15:33N 28°08' W 015°25'0 0.0
2016-Feb-08 14:33N 28°08' W 015°25'0 0.0
2016-Feb-08 13:33N 28°08' W 015°25'0 0.0
2016-Feb-08 12:33N 28°08' W 015°25'0 0.0
2016-Feb-08 11:33N 28°08' W 015°25'0 0.0
2016-Feb-08 10:33N 28°08' W 015°25'  
2016-Feb-03 02:17N 28°03' W 016°18'1111.4
2016-Feb-03 01:17N 28°11' W 016°09'811.5
2016-Feb-03 00:33N 28°18' W 016°04'10 9.9
2016-Feb-02 23:33N 28°27' W 016°11'  

Dump ship's entire track history